createdAt,value
2022-09-06T00:03:52.446Z,20.3
2022-09-06T00:13:54.338Z,20.2
2022-09-06T00:33:58.790Z,19.9
2022-09-06T00:44:00.565Z,19.9
2022-09-06T00:54:02.825Z,19.9
2022-09-06T01:04:04.612Z,19.9
2022-09-06T01:14:07.215Z,19.7
2022-09-06T01:24:09.404Z,19.7
2022-09-06T01:44:14.385Z,19.9
2022-09-06T01:54:16.632Z,20.1
2022-09-06T02:04:18.486Z,20.3
2022-09-06T02:14:21.107Z,20.4
2022-09-06T02:24:23.384Z,20.4
2022-09-06T02:34:25.143Z,20.3
2022-09-06T02:54:29.060Z,19.9
2022-09-06T03:04:30.813Z,19.7
2022-09-06T03:14:33.358Z,19.7
2022-09-06T03:24:35.522Z,19.6
2022-09-06T03:34:37.613Z,19.4
2022-09-06T03:44:39.356Z,19.7
2022-09-06T03:54:41.571Z,19.7
2022-09-06T04:04:43.881Z,19.5
2022-09-06T04:14:45.897Z,19.6
2022-09-06T04:34:49.931Z,19.3
2022-09-06T04:44:51.746Z,18.9
2022-09-06T04:54:53.497Z,18.9
2022-09-06T05:04:55.371Z,19.1
2022-09-06T05:14:57.222Z,19.2
2022-09-06T05:24:59.331Z,19.2
2022-09-06T05:35:01.812Z,19.3
2022-09-06T05:45:04.412Z,19.3
2022-09-06T05:55:06.644Z,19.3
2022-09-06T06:05:08.525Z,19.4
2022-09-06T06:15:10.279Z,19.5
2022-09-06T06:25:12.651Z,19.7
2022-09-06T06:35:14.510Z,19.9
2022-09-06T06:45:16.892Z,20
2022-09-06T06:55:19.552Z,20
2022-09-06T07:25:35.626Z,20.3
2022-09-06T07:35:37.766Z,20.9
2022-09-06T07:45:40.387Z,21.9
2022-09-06T07:55:42.210Z,22.8
2022-09-06T08:25:49.323Z,23.7
2022-09-06T08:35:51.935Z,24.1
2022-09-06T08:45:55.789Z,24.4
2022-09-06T08:55:56.096Z,24.6
2022-09-06T09:05:58.066Z,25.2
2022-09-06T09:26:01.657Z,25.6
2022-09-06T09:36:04.186Z,26.1
2022-09-06T09:46:06.388Z,25.7
2022-09-06T09:56:08.769Z,25.8
2022-09-06T10:16:13.679Z,26.1
2022-09-06T10:26:15.130Z,26.4
2022-09-06T10:36:17.376Z,26.5
2022-09-06T10:46:19.976Z,26.9
2022-09-06T10:56:22.446Z,26.6
2022-09-06T11:06:26.693Z,26.8
2022-09-06T11:16:26.267Z,27.1
2022-09-06T11:26:27.890Z,27.6
2022-09-06T11:36:29.982Z,27.7
2022-09-06T11:46:31.883Z,27.8
2022-09-06T11:56:33.938Z,27.9
2022-09-06T12:06:35.886Z,28.5
2022-09-06T12:16:38.257Z,28.1
2022-09-06T12:36:43.296Z,28.7
2022-09-06T12:46:45.705Z,28.8
2022-09-06T13:06:50.281Z,28.5
2022-09-06T13:16:52.541Z,29
2022-09-06T13:26:54.802Z,29.3
2022-09-06T13:36:57.257Z,29.2
2022-09-06T13:46:59.833Z,29.1
2022-09-06T13:57:01.798Z,28.9
2022-09-06T14:07:03.532Z,28.9
2022-09-06T14:17:05.670Z,29
2022-09-06T14:27:07.669Z,29.5
2022-09-06T14:37:13.362Z,30.4
2022-09-06T14:47:12.359Z,31
2022-09-06T15:07:17.005Z,30
2022-09-06T15:17:18.904Z,29.9
2022-09-06T15:27:20.882Z,30.5
2022-09-06T15:37:22.640Z,30.8
2022-09-06T15:47:24.411Z,30.8
2022-09-06T15:57:26.474Z,29.8
2022-09-06T16:07:28.438Z,31.1
2022-09-06T16:17:30.897Z,30.7
2022-09-06T16:27:32.879Z,30.5
2022-09-06T16:47:37.440Z,29.5
2022-09-06T16:57:39.693Z,29
2022-09-06T17:07:42.277Z,28.8
2022-09-06T17:17:44.363Z,28.6
2022-09-06T17:27:46.675Z,28.4
2022-09-06T17:37:48.528Z,27.9
2022-09-06T17:47:50.781Z,27.3
2022-09-06T17:57:53.268Z,26.8
2022-09-06T18:07:55.629Z,26.2
2022-09-06T18:17:57.822Z,25.7
2022-09-06T18:27:59.979Z,25.5
2022-09-06T18:48:04.471Z,25
2022-09-06T18:58:06.744Z,24.5
2022-09-06T19:08:08.769Z,24.4
2022-09-06T19:58:20.914Z,23
2022-09-06T20:08:23.183Z,22.6
2022-09-06T20:18:25.370Z,22.6
2022-09-06T20:38:30.372Z,22.2
2022-09-06T20:48:32.756Z,22.2
2022-09-06T20:58:35.323Z,22
2022-09-06T21:08:40.623Z,21.3
2022-09-06T21:18:38.944Z,21.5
2022-09-06T21:28:41.000Z,21.8
2022-09-06T21:38:42.861Z,21.9
2022-09-06T21:48:44.884Z,21.8
2022-09-06T21:58:47.459Z,21.4
2022-09-06T22:08:49.430Z,21.6
2022-09-06T22:18:51.842Z,22.1
2022-09-06T22:28:53.533Z,22.7
2022-09-06T22:48:57.386Z,23
2022-09-06T22:58:59.538Z,23.2
2022-09-06T23:09:01.202Z,23
2022-09-06T23:19:03.318Z,22.9
2022-09-06T23:29:05.199Z,22.9
2022-09-06T23:39:07.531Z,22.7
2022-09-06T23:49:09.294Z,22.7
2022-09-06T23:59:11.716Z,22.6
